• Join FlightAware (Why Join?)
  • Login
  • US Flag 
01:00PM EDT


 

Airport Tracker/Info


-or-


 

Live Flight TrackerFlight Track Log ✈ N213KP ✈ 18-Jun-2013 ✈ P19 - KTRK

Flight Track Log - Related Links

Times and Time Zones

All times are in EDT time to prevent confusion due to time zone crossing. See the N213KP flight status page for this flight to view local times or setup timezone preferences in your user account.

Time Position Orientation Groundspeed Altitude Reporting Facility
EDT Latitude Longitude Course Direction KTS MPH feet Rate Location/Type
10:10AM 33.2500 -111.9500 292° West 146 168 2,400  Level Phoenix TRACON
10:11AM 33.2667 -112.0000 292° West 158 182 3,300 720 Climbing Phoenix TRACON
10:12AM 33.3000 -112.0333 320° Northwest 163 188 4,000 900 Climbing Phoenix TRACON
10:13AM 33.3500 -112.0500 344° North 170 196 5,200 660 Climbing Phoenix TRACON
10:15AM 33.4000 -112.0333 16° North 190 219 5,500 180 Climbing Phoenix TRACON
10:16AM 33.4500 -112.0167 16° North 217 250 5,700 540 Climbing Phoenix TRACON
10:18AM 33.5769 -111.9772 15° North 200 230 7,400 780 Climbing Albuquerque Center
10:19AM 33.6117 -112.0256 311° West 194 223 8,400 1,020 Climbing Albuquerque Center
10:20AM 33.6400 -112.0794 302° West 192 221 9,600 1,020 Climbing Albuquerque Center
10:21AM 33.6822 -112.1211 321° Northwest 199 229 10,600 1,020 Climbing Albuquerque Center
10:22AM 33.7333 -112.1519 333° Northwest 204 235 11,800 1,020 Climbing Albuquerque Center
10:23AM 33.7817 -112.1819 333° Northwest 196 226 12,700 900 Climbing Albuquerque Center
10:24AM 33.8419 -112.2186 333° Northwest 201 231 13,700 780 Climbing Albuquerque Center
10:25AM 33.8922 -112.2500 333° Northwest 202 232 14,400 780 Climbing Albuquerque Center
10:26AM 33.9425 -112.2806 333° Northwest 203 234 15,400 960 Climbing Albuquerque Center
10:27AM 33.9931 -112.3122 333° Northwest 204 235 16,400 840 Climbing Albuquerque Center
10:28AM 34.0447 -112.3450 332° Northwest 208 239 17,200 840 Climbing Albuquerque Center
10:29AM 34.0967 -112.3761 334° Northwest 209 241 18,200 840 Climbing Albuquerque Center
10:30AM 34.1494 -112.4097 332° Northwest 213 245 19,000 780 Climbing Albuquerque Center
10:31AM 34.2022 -112.4414 334° Northwest 211 243 19,800 780 Climbing Albuquerque Center
10:32AM 34.2633 -112.4878 328° Northwest 214 246 20,600 720 Climbing Albuquerque Center
10:33AM 34.2925 -112.5456 301° West 204 235 21,300 600 Climbing Albuquerque Center
10:34AM 34.3228 -112.6044 302° West 205 236 21,900 540 Climbing Albuquerque Center
10:35AM 34.3539 -112.6631 303° West 207 238 22,500 480 Climbing Albuquerque Center
10:36AM 34.3842 -112.7214 302° West 206 237 23,000 480 Climbing Albuquerque Center
10:37AM 34.4158 -112.7811 303° West 210 242 23,500 480 Climbing Albuquerque Center
10:38AM 34.4539 -112.8536 302° West 212 244 24,100 480 Climbing Albuquerque Center
10:39AM 34.4822 -112.9072 303° West 212 244 24,600 480 Climbing Albuquerque Center
10:40AM 34.5139 -112.9669 303° West 212 244 25,200 600 Climbing Albuquerque Center
10:41AM 34.5511 -113.0378 303° West 209 241 25,900 540 Climbing Albuquerque Center
10:43AM 34.5811 -113.0967 302° West 207 238 26,400 480 Climbing Albuquerque Center
10:44AM 34.6122 -113.1547 303° West 207 238 26,900 540 Climbing Albuquerque Center
10:45AM 34.6403 -113.2108 301° West 198 228 27,600 480 Climbing Albuquerque Center
10:46AM 34.6692 -113.2669 302° West 196 226 28,000 180 Climbing Albuquerque Center
10:47AM 34.6992 -113.3250 302° West 201 231 28,000  Level Albuquerque Center
10:48AM 34.7372 -113.3969 303° West 209 241 28,000  Level Albuquerque Center
10:49AM 34.7692 -113.4592 302° West 215 247 28,000  Level Albuquerque Center
10:50AM 34.8006 -113.5214 302° West 216 249 28,000  Level Albuquerque Center
10:51AM 34.8322 -113.5828 302° West 216 249 28,000  Level Albuquerque Center
10:52AM 34.8644 -113.6456 302° West 218 251 28,000  Level Albuquerque Center
10:53AM 34.8964 -113.7081 302° West 219 252 28,000  Level Albuquerque Center
10:54AM 34.9350 -113.7833 302° West 219 252 28,000  Level Albuquerque Center
10:54AM 34.9419 -113.7956 305° West 219 252 28,000  Level Los Angeles Center
10:55AM 34.9800 -113.8692 302° West 215 247 28,000  Level Los Angeles Center
10:56AM 35.0106 -113.9317 301° West 215 247 28,000  Level Los Angeles Center
10:57AM 35.0467 -114.0028 302° West 216 249 28,000  Level Los Angeles Center
10:59AM 35.0789 -114.0650 302° West 217 250 28,000  Level Los Angeles Center
11:00AM 35.1175 -114.1400 302° West 217 250 28,000  Level Los Angeles Center
11:01AM 35.1483 -114.2042 300° West 219 252 28,000  Level Los Angeles Center
11:02AM 35.1872 -114.2789 303° West 217 250 28,000  Level Los Angeles Center
11:03AM 35.2183 -114.3408 302° West 214 246 28,000  Level Los Angeles Center
11:04AM 35.2494 -114.4039 301° West 214 246 28,000  Level Los Angeles Center
11:05AM 35.2808 -114.4661 302° West 215 247 28,000  Level Los Angeles Center
11:06AM 35.3117 -114.5278 302° West 212 244 28,000  Level Los Angeles Center
11:07AM 35.3422 -114.5900 301° West 211 243 28,000  Level Los Angeles Center
11:08AM 35.3731 -114.6492 303° West 209 241 28,000  Level Los Angeles Center
11:09AM 35.4106 -114.7217 302° West 209 241 28,000  Level Los Angeles Center
11:10AM 35.4408 -114.7831 301° West 209 241 28,000  Level Los Angeles Center
11:11AM 35.4772 -114.8414 307° West 213 245 28,000  Level Los Angeles Center
11:12AM 35.5214 -114.8953 315° West 221 254 28,000  Level Los Angeles Center
11:13AM 35.5650 -114.9494 315° West 222 255 28,000  Level Los Angeles Center
11:14AM 35.6069 -115.0033 314° West 220 253 28,000  Level Los Angeles Center
11:15AM 35.6497 -115.0575 314° West 220 253 28,000  Level Los Angeles Center
11:16AM 35.7006 -115.1239 313° West 220 253 28,000  Level Los Angeles Center
11:17AM 35.7422 -115.1767 314° West 214 246 28,000  Level Los Angeles Center
11:18AM 35.7825 -115.2336 311° West 218 251 28,000  Level Los Angeles Center
11:19AM 35.8231 -115.2911 311° West 221 254 28,000  Level Los Angeles Center
11:20AM 35.8622 -115.3489 310° West 220 253 28,000  Level Los Angeles Center
11:21AM 35.9028 -115.4089 310° West 224 258 28,000  Level Los Angeles Center
11:22AM 35.9442 -115.4681 311° West 226 260 28,000  Level Los Angeles Center
11:23AM 35.9928 -115.5403 310° West 225 259 28,000  Level Los Angeles Center
11:24AM 36.0339 -115.5997 311° West 225 259 28,000  Level Los Angeles Center
11:25AM 36.0739 -115.6586 310° West 223 257 28,000  Level Los Angeles Center
11:27AM 36.1142 -115.7181 310° West 223 257 28,000  Level Los Angeles Center
11:28AM 36.1539 -115.7772 310° West 222 255 28,000  Level Los Angeles Center
11:29AM 36.1950 -115.8333 312° West 220 253 28,000  Level Los Angeles Center
11:30AM 36.2383 -115.8883 314° West 221 254 28,000  Level Los Angeles Center
11:31AM 36.2722 -115.9311 315° West 220 253 28,000  Level Los Angeles Center
11:32AM 36.3228 -115.9975 313° West 220 253 28,000  Level Los Angeles Center
11:33AM 36.3750 -116.0647 314° West 224 258 28,000  Level Los Angeles Center
11:34AM 36.4183 -116.1214 314° West 227 261 28,000  Level Los Angeles Center
11:35AM 36.4625 -116.1794 313° West 229 264 28,000  Level Los Angeles Center
11:36AM 36.5183 -116.2511 314° West 232 267 28,000  Level Los Angeles Center
11:37AM 36.5603 -116.3056 314° West 229 264 28,000  Level Los Angeles Center
11:38AM 36.6047 -116.3650 313° West 231 266 28,000  Level Los Angeles Center
11:39AM 36.6586 -116.4336 314° West 232 267 28,000  Level Los Angeles Center
11:40AM 36.7039 -116.4936 313° West 235 270 28,000  Level Los Angeles Center
11:41AM 36.7492 -116.5550 313° West 239 275 28,000  Level Los Angeles Center
11:42AM 36.7942 -116.6153 313° West 238 274 28,000  Level Los Angeles Center
11:43AM 36.8403 -116.6753 314° West 238 274 28,000  Level Los Angeles Center
11:45AM 36.9408 -116.8078 314° West 240 276 28,000  Level Los Angeles Center
11:46AM 36.9858 -116.8689 313° West 239 275 28,000  Level Los Angeles Center
11:47AM 37.0317 -116.9294 313° West 239 275 28,000  Level Los Angeles Center
11:48AM 37.0767 -116.9897 313° West 238 274 28,000  Level Los Angeles Center
11:49AM 37.1222 -117.0514 313° West 239 275 28,000  Level Los Angeles Center
11:51AM 37.1678 -117.1119 313° West 240 276 28,000  Level Los Angeles Center
11:52AM 37.2222 -117.1864 313° West 240 276 28,000  Level Los Angeles Center
11:53AM 37.2686 -117.2481 313° West 241 277 28,000  Level Los Angeles Center
11:54AM 37.3142 -117.3094 313° West 241 277 28,000  Level Los Angeles Center
11:55AM 37.3583 -117.3700 313° West 237 273 28,000  Level Los Angeles Center
11:56AM 37.4033 -117.4308 313° West 237 273 28,000  Level Los Angeles Center
11:57AM 37.4483 -117.4919 313° West 240 276 28,000  Level Oakland Center
11:59AM 37.5403 -117.6172 313° West 243 280 28,000  Level Oakland Center
12:00PM 37.5886 -117.6814 314° West 248 285 28,000  Level Oakland Center
12:01PM 37.6350 -117.7456 312° West 247 284 28,000  Level Oakland Center
12:02PM 37.6811 -117.8094 312° West 245 282 28,000  Level Oakland Center
12:03PM 37.7272 -117.8714 313° West 242 278 28,000  Level Oakland Center
12:04PM 37.7725 -117.9350 312° West 242 278 28,000  Level Oakland Center
12:05PM 37.8183 -117.9981 313° West 243 280 28,000  Level Oakland Center
12:06PM 37.8639 -118.0622 312° West 242 278 28,000  Level Oakland Center
12:07PM 37.9100 -118.1256 313° West 244 281 28,000  Level Oakland Center
12:08PM 37.9664 -118.2028 313° West 248 285 28,000  Level Oakland Center
12:09PM 38.0131 -118.2681 312° West 248 285 28,000  Level Oakland Center
12:10PM 38.0589 -118.3311 313° West 245 282 28,000  Level Oakland Center
12:11PM 38.1061 -118.3983 312° West 250 288 28,000  Level Oakland Center
12:12PM 38.1547 -118.4633 314° West 254 292 28,000  Level Oakland Center
12:13PM 38.2022 -118.5314 312° West 257 296 28,000  Level Oakland Center
12:14PM 38.2483 -118.5983 311° West 254 292 28,000 -300 Level Oakland Center
12:15PM 38.2964 -118.6644 313° West 254 292 27,500 -780 Descending Oakland Center
12:16PM 38.3431 -118.7294 312° West 250 288 26,500 -1,020 Descending Oakland Center
12:17PM 38.3897 -118.7958 312° West 250 288 25,500 -1,080 Descending Oakland Center
12:18PM 38.4450 -118.8753 312° West 249 287 24,300 -1,140 Descending Oakland Center
12:19PM 38.4933 -118.9428 312° West 255 293 23,300 -1,020 Descending Oakland Center
12:20PM 38.5389 -119.0083 312° West 250 288 22,300 -1,080 Descending Oakland Center
12:21PM 38.5839 -119.0736 311° West 247 284 21,200 -1,080 Descending Oakland Center
12:22PM 38.6289 -119.1356 313° West 241 277 20,200 -1,020 Descending Oakland Center
12:23PM 38.6731 -119.1992 312° West 239 275 19,200 -1,020 Descending Oakland Center
12:24PM 38.7164 -119.2622 311° West 237 273 18,200 -1,020 Descending Oakland Center
12:25PM 38.7600 -119.3244 312° West 235 270 17,200 -1,020 Descending Oakland Center
12:26PM 38.8031 -119.3861 312° West 232 267 16,200 -1,020 Descending Oakland Center
12:27PM 38.8453 -119.4469 312° West 230 265 15,200 -1,080 Descending Oakland Center
12:28PM 38.8958 -119.5200 312° West 229 264 14,000 -600 Descending Oakland Center
12:29PM 38.9383 -119.5814 312° West 231 266 14,000  Level Oakland Center
12:30PM 38.9792 -119.6397 312° West 221 254 14,000 -180 Level Oakland Center
12:31PM 39.0225 -119.7031 311° West 229 264 13,700 -660 Descending Oakland Center
12:32PM 39.0936 -119.7303 343° North 274 315 12,700 -900 Descending Oakland Center
12:33PM 39.1650 -119.7378 355° North 267 307 11,900 -720 Descending Oakland Center
12:34PM 39.1869 -119.8042 293° West 237 273 11,300 -600 Descending Oakland Center